Terminal Aerodrome Forecast
Issued by NWS Albuquerque, NM

Home | Current Version | Previous Version | Text Only | Print | Product List | Glossary On
Versions: 1 2 3 4 5 6 7 8 9 10 11 12 13 14 15 16 17 18
000
FTUS45 KABQ 020700 AAA
TAFABQ
TAF AMD
KABQ 020709Z 0207/0306 09012G20KT 6SM RA BR SCT035 BKN050 OVC090
      TEMPO 0207/0209 5SM RA BR BKN035
     FM021000 09010G18KT P6SM -SHRA BKN040
     FM021200 09010KT P6SM SCT040 BKN080
     FM021800 14008KT P6SM SCT050 BKN100
     FM022200 17010KT P6SM VCTS SCT060CB BKN120=

USA.gov is the U.S. government's official web portal to all federal, state and local government web resources and services.